createdAt,value
2022-11-27T00:01:23.175Z,15.90
2022-11-27T00:03:50.553Z,23.45
2022-11-27T00:06:21.859Z,23.58
2022-11-27T00:08:49.380Z,21.30
2022-11-27T00:11:18.977Z,19.00
2022-11-27T00:13:46.007Z,16.38
2022-11-27T00:16:14.607Z,14.82
2022-11-27T00:18:41.670Z,14.77
2022-11-27T00:21:14.079Z,14.85
2022-11-27T00:23:40.700Z,10.98
2022-11-27T00:26:08.151Z,8.05
2022-11-27T00:28:35.449Z,12.68
2022-11-27T00:33:33.101Z,9.65
2022-11-27T00:36:04.441Z,7.93
2022-11-27T00:38:34.675Z,10.90
2022-11-27T00:41:09.765Z,11.45
2022-11-27T00:43:44.187Z,10.15
2022-11-27T00:46:15.856Z,9.60
2022-11-27T00:48:43.553Z,10.77
2022-11-27T00:51:13.873Z,9.48
2022-11-27T00:53:40.805Z,10.13
2022-11-27T00:56:08.622Z,9.57
2022-11-27T00:58:35.491Z,9.95
2022-11-27T01:01:05.134Z,9.75
2022-11-27T01:03:32.404Z,9.27
2022-11-27T01:08:29.101Z,9.25
2022-11-27T01:10:57.916Z,9.10
2022-11-27T01:13:30.237Z,9.43
2022-11-27T01:16:00.935Z,9.57
2022-11-27T01:18:27.892Z,9.30
2022-11-27T01:20:55.288Z,10.23
2022-11-27T01:25:49.517Z,9.63
2022-11-27T01:28:17.005Z,9.30
2022-11-27T01:30:43.565Z,9.60
2022-11-27T01:33:10.141Z,9.57
2022-11-27T01:35:36.804Z,7.43
2022-11-27T01:38:03.840Z,9.40
2022-11-27T01:40:30.386Z,8.98
2022-11-27T01:42:56.927Z,8.98
2022-11-27T01:45:24.157Z,9.43
2022-11-27T01:50:31.156Z,8.88
2022-11-27T01:53:14.135Z,9.77
2022-11-27T01:55:46.566Z,9.57
2022-11-27T01:58:26.191Z,9.85
2022-11-27T02:00:52.916Z,17.17
2022-11-27T02:03:20.137Z,14.95
2022-11-27T02:08:16.222Z,15.50
2022-11-27T02:11:04.249Z,16.23
2022-11-27T02:13:39.060Z,16.52
2022-11-27T02:16:20.758Z,15.77
2022-11-27T02:19:00.357Z,16.52
2022-11-27T02:21:39.548Z,15.65
2022-11-27T02:24:37.090Z,15.10
2022-11-27T02:27:22.618Z,12.40
2022-11-27T02:29:52.618Z,14.00
2022-11-27T02:32:27.074Z,12.88
2022-11-27T02:35:19.219Z,12.48
2022-11-27T02:37:58.457Z,14.00
2022-11-27T02:41:12.842Z,14.77
2022-11-27T02:43:45.011Z,14.23
2022-11-27T02:46:14.186Z,13.60
2022-11-27T02:48:46.943Z,10.48
2022-11-27T02:51:17.250Z,9.80
2022-11-27T02:53:50.902Z,10.13
2022-11-27T02:56:24.722Z,9.10
2022-11-27T02:58:52.676Z,9.25
2022-11-27T03:01:21.987Z,8.60
2022-11-27T03:03:56.048Z,8.75
2022-11-27T03:06:31.312Z,9.10
2022-11-27T03:09:02.859Z,9.35
2022-11-27T03:11:32.292Z,8.75
2022-11-27T03:14:10.224Z,9.25
2022-11-27T03:16:39.770Z,10.07
2022-11-27T03:19:25.866Z,13.10
2022-11-27T03:21:58.466Z,16.85
2022-11-27T03:24:26.985Z,14.88
2022-11-27T03:26:53.760Z,16.23
2022-11-27T03:29:38.817Z,16.00
2022-11-27T03:32:06.100Z,15.88
2022-11-27T03:36:59.345Z,14.63
2022-11-27T03:39:26.598Z,15.45
2022-11-27T03:45:01.537Z,15.07
2022-11-27T03:47:49.986Z,15.27
2022-11-27T03:50:28.286Z,15.52
2022-11-27T03:53:13.093Z,15.77
2022-11-27T03:55:54.850Z,15.05
2022-11-27T03:58:37.970Z,15.43
2022-11-27T04:01:07.904Z,14.73
2022-11-27T04:03:36.047Z,15.13
2022-11-27T04:06:02.881Z,15.63
2022-11-27T04:08:29.606Z,16.35
2022-11-27T04:10:56.256Z,11.80
2022-11-27T04:13:23.022Z,14.98
2022-11-27T04:15:49.727Z,14.65
2022-11-27T04:18:16.528Z,15.25
2022-11-27T04:20:43.185Z,14.32
2022-11-27T04:23:10.449Z,15.50
2022-11-27T04:28:03.573Z,16.23
2022-11-27T04:30:31.371Z,16.58
2022-11-27T04:32:57.980Z,18.23
2022-11-27T04:35:24.506Z,18.55
2022-11-27T04:37:51.090Z,16.25
2022-11-27T04:40:18.035Z,15.07
2022-11-27T04:42:44.542Z,15.02
2022-11-27T04:45:11.308Z,15.88
2022-11-27T04:47:37.862Z,15.02
2022-11-27T04:50:04.957Z,24.00
2022-11-27T04:52:31.577Z,28.80
2022-11-27T04:55:00.353Z,25.05
2022-11-27T04:57:27.828Z,17.52
2022-11-27T04:59:54.502Z,18.70
2022-11-27T05:02:21.025Z,35.72
2022-11-27T05:04:47.558Z,19.05
2022-11-27T05:07:14.269Z,15.95
2022-11-27T05:09:41.017Z,17.00
2022-11-27T05:12:07.610Z,25.60
2022-11-27T05:14:34.181Z,16.05
2022-11-27T05:17:01.720Z,16.45
2022-11-27T05:19:30.906Z,15.32
2022-11-27T05:21:58.008Z,14.63
2022-11-27T05:24:27.377Z,14.45
2022-11-27T05:26:53.980Z,16.15
2022-11-27T05:29:21.355Z,15.48
2022-11-27T05:31:48.073Z,15.85
2022-11-27T05:34:14.995Z,19.13
2022-11-27T05:36:42.151Z,18.52
2022-11-27T05:39:10.141Z,25.60
2022-11-27T05:41:38.710Z,60.83
2022-11-27T05:44:06.081Z,52.28
2022-11-27T05:46:33.240Z,110.60
2022-11-27T05:48:59.873Z,137.20
2022-11-27T05:51:26.533Z,43.25
2022-11-27T05:53:53.116Z,30.65
2022-11-27T05:56:19.723Z,20.65
2022-11-27T05:58:48.055Z,16.63
2022-11-27T06:01:16.437Z,14.48
2022-11-27T06:03:43.168Z,19.27
2022-11-27T06:06:13.464Z,19.15
2022-11-27T06:08:41.095Z,18.65
2022-11-27T06:11:19.435Z,21.08
2022-11-27T06:13:47.287Z,21.67
2022-11-27T06:16:20.207Z,23.30
2022-11-27T06:18:53.742Z,22.63
2022-11-27T06:21:21.777Z,20.90
2022-11-27T06:23:49.024Z,20.63
2022-11-27T06:28:45.316Z,22.52
2022-11-27T06:31:17.844Z,20.60
2022-11-27T06:33:45.060Z,17.60
2022-11-27T06:36:11.631Z,18.98
2022-11-27T06:38:38.466Z,22.10
2022-11-27T06:41:10.964Z,22.80
2022-11-27T06:43:37.553Z,23.88
2022-11-27T06:46:05.913Z,20.75
2022-11-27T06:48:33.237Z,20.17
2022-11-27T06:53:28.567Z,37.42
2022-11-27T06:55:55.308Z,37.60
2022-11-27T06:58:25.316Z,44.28
2022-11-27T07:01:03.103Z,44.20
2022-11-27T07:03:30.029Z,41.78
2022-11-27T07:06:00.102Z,44.22
2022-11-27T07:08:26.836Z,42.47
2022-11-27T07:10:53.455Z,31.52
2022-11-27T07:13:20.091Z,24.35
2022-11-27T07:15:46.680Z,27.83
2022-11-27T07:18:13.268Z,39.83
2022-11-27T07:20:39.812Z,32.72
2022-11-27T07:23:06.352Z,31.42
2022-11-27T07:25:32.976Z,24.80
2022-11-27T07:27:59.585Z,29.30
2022-11-27T07:30:26.156Z,24.52
2022-11-27T07:32:52.719Z,26.05
2022-11-27T07:35:19.292Z,26.35
2022-11-27T07:37:45.858Z,17.42
2022-11-27T07:40:14.883Z,16.88
2022-11-27T07:42:41.709Z,18.90
2022-11-27T07:45:09.054Z,16.42
2022-11-27T07:47:35.821Z,22.63
2022-11-27T07:50:02.771Z,24.40
2022-11-27T07:52:29.506Z,32.78
2022-11-27T07:54:56.041Z,46.85
2022-11-27T07:57:22.679Z,20.38
2022-11-27T07:59:49.262Z,18.80
2022-11-27T08:02:15.867Z,18.02
2022-11-27T08:04:42.764Z,17.95
2022-11-27T08:07:09.606Z,21.67
2022-11-27T08:09:37.782Z,23.77
2022-11-27T08:12:04.848Z,29.20
2022-11-27T08:14:31.478Z,28.90
2022-11-27T08:16:58.486Z,20.33
2022-11-27T08:19:25.179Z,19.17
2022-11-27T08:21:51.838Z,18.58
2022-11-27T08:24:18.406Z,18.38
2022-11-27T08:26:45.284Z,17.80
2022-11-27T08:29:12.917Z,16.98
2022-11-27T08:31:39.649Z,23.30
2022-11-27T08:34:06.435Z,13.55
2022-11-27T08:36:33.077Z,20.40
2022-11-27T08:38:59.638Z,13.48
2022-11-27T08:41:26.204Z,17.75
2022-11-27T08:43:52.799Z,12.98
2022-11-27T08:46:19.472Z,17.15
2022-11-27T08:48:46.191Z,12.85
2022-11-27T08:51:14.631Z,18.90
2022-11-27T08:53:44.120Z,17.25
2022-11-27T08:56:23.530Z,20.45
2022-11-27T08:58:50.890Z,19.42
2022-11-27T09:03:46.025Z,19.25
2022-11-27T09:06:16.021Z,20.10
2022-11-27T09:08:43.235Z,16.52
2022-11-27T09:11:11.877Z,16.70
2022-11-27T09:13:40.350Z,16.77
2022-11-27T09:16:09.795Z,16.90
2022-11-27T09:18:36.454Z,18.27
2022-11-27T09:21:14.060Z,19.55
2022-11-27T09:23:41.218Z,17.52
2022-11-27T09:26:10.851Z,18.98
2022-11-27T09:28:38.696Z,21.00
2022-11-27T09:31:07.462Z,20.35
2022-11-27T09:33:35.519Z,19.45
2022-11-27T09:36:17.352Z,19.90
2022-11-27T09:38:44.684Z,18.67
2022-11-27T09:46:19.672Z,17.15
2022-11-27T09:48:50.571Z,17.52
2022-11-27T09:51:28.816Z,17.55
2022-11-27T09:54:11.837Z,17.35
2022-11-27T09:56:51.059Z,18.38
2022-11-27T09:59:21.122Z,17.88
2022-11-27T10:01:51.110Z,17.00
2022-11-27T10:04:20.367Z,15.30
2022-11-27T10:07:12.909Z,17.55
2022-11-27T10:09:45.356Z,17.65
2022-11-27T10:12:40.990Z,17.90
2022-11-27T10:15:29.214Z,17.17
2022-11-27T10:18:03.380Z,17.27
2022-11-27T10:20:43.703Z,17.92
2022-11-27T10:23:13.247Z,24.23
2022-11-27T10:25:45.919Z,16.85
2022-11-27T10:28:31.008Z,18.95
2022-11-27T10:31:10.398Z,18.60
2022-11-27T10:33:41.608Z,16.75
2022-11-27T10:36:15.742Z,17.10
2022-11-27T10:38:43.687Z,15.85
2022-11-27T10:44:28.048Z,15.90
2022-11-27T10:47:01.403Z,17.67
2022-11-27T10:49:28.030Z,20.52
2022-11-27T10:51:54.660Z,19.77
2022-11-27T10:54:32.383Z,18.63
2022-11-27T10:57:32.855Z,18.35
2022-11-27T11:00:10.535Z,18.15
2022-11-27T11:02:39.251Z,16.90
2022-11-27T11:05:35.015Z,17.10
2022-11-27T11:08:06.922Z,18.13
2022-11-27T11:10:43.231Z,18.05
2022-11-27T11:13:21.760Z,17.83
2022-11-27T11:15:56.236Z,18.38
2022-11-27T11:18:32.530Z,19.63
2022-11-27T11:21:01.595Z,12.50
2022-11-27T11:23:31.755Z,17.75
2022-11-27T11:26:07.573Z,21.90
2022-11-27T11:28:39.636Z,17.05
2022-11-27T11:31:11.524Z,17.02
2022-11-27T11:33:51.062Z,16.95
2022-11-27T11:36:17.775Z,16.15
2022-11-27T11:38:46.749Z,16.95
2022-11-27T11:41:13.967Z,16.70
2022-11-27T11:43:42.076Z,16.35
2022-11-27T11:46:22.889Z,15.65
2022-11-27T11:49:01.623Z,15.55
2022-11-27T11:51:49.570Z,14.70
2022-11-27T11:54:34.172Z,14.95
2022-11-27T11:57:04.185Z,15.18
2022-11-27T11:59:45.312Z,14.98
2022-11-27T12:02:47.029Z,13.70
2022-11-27T12:05:27.137Z,13.07
2022-11-27T12:08:12.193Z,10.93
2022-11-27T12:10:53.467Z,11.75
2022-11-27T12:13:33.475Z,12.65
2022-11-27T12:16:09.546Z,11.73
2022-11-27T12:18:58.952Z,11.30
2022-11-27T12:21:49.960Z,12.35
2022-11-27T12:24:24.542Z,12.07
2022-11-27T12:27:29.104Z,12.20
2022-11-27T12:30:14.109Z,10.50
2022-11-27T12:33:09.641Z,10.70
2022-11-27T12:35:49.839Z,10.32
2022-11-27T12:38:55.223Z,10.68
2022-11-27T12:41:49.014Z,10.73
2022-11-27T12:44:30.605Z,10.25
2022-11-27T12:47:17.498Z,11.38
2022-11-27T12:49:57.414Z,11.30
2022-11-27T12:52:31.923Z,10.52
2022-11-27T12:55:06.833Z,10.57
2022-11-27T12:57:39.268Z,10.80
2022-11-27T13:00:13.802Z,10.52
2022-11-27T13:03:12.712Z,11.43
2022-11-27T13:05:45.537Z,10.27
2022-11-27T13:08:30.774Z,11.40
2022-11-27T13:11:04.282Z,10.98
2022-11-27T13:13:40.719Z,10.43
2022-11-27T13:16:19.329Z,10.75
2022-11-27T13:19:10.284Z,10.38
2022-11-27T13:21:39.264Z,9.77
2022-11-27T13:24:06.489Z,11.60
2022-11-27T13:27:08.199Z,10.65
2022-11-27T13:30:07.001Z,11.07
2022-11-27T13:32:49.974Z,10.48
2022-11-27T13:35:26.029Z,9.90
2022-11-27T13:37:59.957Z,10.52
2022-11-27T13:40:39.736Z,10.30
2022-11-27T13:43:20.366Z,9.88
2022-11-27T13:45:47.395Z,10.13
2022-11-27T13:48:32.832Z,11.40
2022-11-27T13:51:00.248Z,9.48
2022-11-27T13:55:58.778Z,9.75
2022-11-27T13:58:51.625Z,9.93
2022-11-27T14:01:23.449Z,9.88
2022-11-27T14:03:50.933Z,10.02
2022-11-27T14:08:53.593Z,10.52
2022-11-27T14:11:35.281Z,10.90
2022-11-27T14:14:11.704Z,11.68
2022-11-27T14:16:39.683Z,11.90
2022-11-27T14:19:27.194Z,10.98
2022-11-27T14:21:57.410Z,9.88
2022-11-27T14:24:29.926Z,11.27
2022-11-27T14:26:57.264Z,10.63
2022-11-27T14:32:01.956Z,9.95
2022-11-27T14:34:33.380Z,10.63
2022-11-27T14:37:00.784Z,10.35
2022-11-27T14:42:02.309Z,14.85
2022-11-27T14:44:29.934Z,12.97
2022-11-27T14:47:00.249Z,9.90
2022-11-27T14:49:29.118Z,10.65
2022-11-27T14:52:02.042Z,10.35
2022-11-27T14:54:33.043Z,10.00
2022-11-27T14:56:59.774Z,9.68
2022-11-27T14:59:26.684Z,11.82
2022-11-27T15:02:29.334Z,14.02
2022-11-27T15:05:04.226Z,10.63
2022-11-27T15:07:36.581Z,10.65
2022-11-27T15:10:34.326Z,11.20
2022-11-27T15:13:03.407Z,11.23
2022-11-27T15:15:34.862Z,12.13
2022-11-27T15:18:06.528Z,12.10
2022-11-27T15:20:44.974Z,9.40
2022-11-27T15:23:25.899Z,11.15
2022-11-27T15:26:12.566Z,10.75
2022-11-27T15:28:49.603Z,10.45
2022-11-27T15:31:25.061Z,12.00
2022-11-27T15:34:14.653Z,11.75
2022-11-27T15:36:47.717Z,11.18
2022-11-27T15:39:23.357Z,10.82
2022-11-27T15:41:57.155Z,9.05
2022-11-27T15:44:25.555Z,8.82
2022-11-27T15:46:54.520Z,9.27
2022-11-27T15:49:22.892Z,9.40
2022-11-27T15:51:50.212Z,9.15
2022-11-27T15:54:16.926Z,10.45
2022-11-27T15:56:43.977Z,10.95
2022-11-27T15:59:10.635Z,12.18
2022-11-27T16:01:38.117Z,10.75
2022-11-27T16:04:04.841Z,9.50
2022-11-27T16:06:32.041Z,10.00
2022-11-27T16:09:00.903Z,9.73
2022-11-27T16:11:29.842Z,8.13
2022-11-27T16:13:56.606Z,8.02
2022-11-27T16:16:24.372Z,7.65
2022-11-27T16:18:51.130Z,8.23
2022-11-27T16:21:18.309Z,8.00
2022-11-27T16:23:45.211Z,7.57
2022-11-27T16:26:13.372Z,6.70
2022-11-27T16:28:40.008Z,7.07
2022-11-27T16:31:13.623Z,7.50
2022-11-27T16:33:41.100Z,7.13
2022-11-27T16:38:35.687Z,7.68
2022-11-27T16:41:04.457Z,7.65
2022-11-27T16:43:34.754Z,6.50
2022-11-27T16:46:07.609Z,7.28
2022-11-27T16:48:35.579Z,6.15
2022-11-27T16:51:07.682Z,6.63
2022-11-27T16:53:38.249Z,7.43
2022-11-27T16:56:06.230Z,6.78
2022-11-27T16:58:34.540Z,7.68
2022-11-27T17:01:04.945Z,7.00
2022-11-27T17:03:31.662Z,6.70
2022-11-27T17:05:58.678Z,7.30
2022-11-27T17:08:25.717Z,9.38
2022-11-27T17:10:52.479Z,8.35
2022-11-27T17:13:19.027Z,7.95
2022-11-27T17:15:45.593Z,9.40
2022-11-27T17:18:12.149Z,8.95
2022-11-27T17:20:38.737Z,7.68
2022-11-27T17:23:05.236Z,7.10
2022-11-27T17:25:31.851Z,7.40
2022-11-27T17:27:58.855Z,9.30
2022-11-27T17:30:25.453Z,8.95
2022-11-27T17:32:52.140Z,9.60
2022-11-27T17:35:18.671Z,6.05
2022-11-27T17:37:45.458Z,8.27
2022-11-27T17:40:12.688Z,6.07
2022-11-27T17:42:39.279Z,8.70
2022-11-27T17:45:06.377Z,8.88
2022-11-27T17:47:34.159Z,10.70
2022-11-27T17:50:00.982Z,11.77
2022-11-27T17:52:27.659Z,9.82
2022-11-27T17:54:54.241Z,9.48
2022-11-27T17:57:20.762Z,10.15
2022-11-27T17:59:47.297Z,9.52
2022-11-27T18:02:13.911Z,8.77
2022-11-27T18:04:40.532Z,9.90
2022-11-27T18:07:07.109Z,9.23
2022-11-27T18:09:33.680Z,9.38
2022-11-27T18:12:00.183Z,10.73
2022-11-27T18:14:26.726Z,7.23
2022-11-27T18:16:53.319Z,13.77
2022-11-27T18:19:20.226Z,11.10
2022-11-27T18:21:46.845Z,11.38
2022-11-27T18:24:28.686Z,14.63
2022-11-27T18:27:11.068Z,10.77
2022-11-27T18:29:40.370Z,15.70
2022-11-27T18:32:07.307Z,11.43
2022-11-27T18:34:34.613Z,11.57
2022-11-27T18:37:01.181Z,12.13
2022-11-27T18:39:28.135Z,9.98
2022-11-27T18:41:54.853Z,12.88
2022-11-27T18:44:21.402Z,12.20
2022-11-27T18:46:48.040Z,12.83
2022-11-27T18:49:14.810Z,12.57
2022-11-27T18:51:41.521Z,11.93
2022-11-27T18:54:08.060Z,12.88
2022-11-27T18:56:34.637Z,12.30
2022-11-27T18:59:03.248Z,12.80
2022-11-27T19:01:36.730Z,12.23
2022-11-27T19:04:05.523Z,12.48
2022-11-27T19:06:34.586Z,11.35
2022-11-27T19:09:01.329Z,13.18
2022-11-27T19:11:32.761Z,12.15
2022-11-27T19:13:59.812Z,11.27
2022-11-27T19:16:35.515Z,10.43
2022-11-27T19:19:04.490Z,10.05
2022-11-27T19:21:32.956Z,9.57
2022-11-27T19:24:01.130Z,10.05
2022-11-27T19:26:36.009Z,10.95
2022-11-27T19:29:06.193Z,10.82
2022-11-27T19:31:33.353Z,11.35
2022-11-27T19:34:02.249Z,11.07
2022-11-27T19:36:30.768Z,10.88
2022-11-27T19:39:04.415Z,9.50
2022-11-27T19:41:31.317Z,8.20
2022-11-27T19:43:59.519Z,9.27
2022-11-27T19:46:29.055Z,9.25
2022-11-27T19:48:57.291Z,9.82
2022-11-27T19:51:24.809Z,10.38
2022-11-27T19:53:51.424Z,16.98
2022-11-27T19:56:18.066Z,15.30
2022-11-27T19:58:44.841Z,15.75
2022-11-27T20:01:17.238Z,13.68
2022-11-27T20:03:45.371Z,12.40
2022-11-27T20:06:14.838Z,13.00
2022-11-27T20:08:42.139Z,12.90
2022-11-27T20:11:11.071Z,13.20
2022-11-27T20:13:38.251Z,13.63
2022-11-27T20:16:09.062Z,17.90
2022-11-27T20:18:36.392Z,18.95
2022-11-27T20:21:08.434Z,24.75
2022-11-27T20:23:35.309Z,22.67
2022-11-27T20:26:06.295Z,19.23
2022-11-27T20:28:33.559Z,18.15
2022-11-27T20:31:03.069Z,17.17
2022-11-27T20:33:31.810Z,17.58
2022-11-27T20:35:58.759Z,14.75
2022-11-27T20:38:26.601Z,14.07
2022-11-27T20:40:53.723Z,12.48
2022-11-27T20:43:20.304Z,12.35
2022-11-27T20:45:47.066Z,11.70
2022-11-27T20:48:13.633Z,13.27
2022-11-27T20:50:40.286Z,14.53
2022-11-27T20:53:06.912Z,12.15
2022-11-27T20:55:34.732Z,12.43
2022-11-27T20:58:01.426Z,12.15
2022-11-27T21:00:28.122Z,11.82
2022-11-27T21:02:54.723Z,13.63
2022-11-27T21:05:21.284Z,14.40
2022-11-27T21:07:47.927Z,14.97
2022-11-27T21:10:16.945Z,12.77
2022-11-27T21:12:43.868Z,19.55
2022-11-27T21:15:10.874Z,18.65
2022-11-27T21:17:37.402Z,19.40
2022-11-27T21:20:04.550Z,15.10
2022-11-27T21:22:31.874Z,15.90
2022-11-27T21:27:25.030Z,20.73
2022-11-27T21:29:51.862Z,22.20
2022-11-27T21:32:22.381Z,21.55
2022-11-27T21:34:49.150Z,19.42
2022-11-27T21:37:15.706Z,16.20
2022-11-27T21:39:44.156Z,11.27
2022-11-27T21:42:11.086Z,13.35
2022-11-27T21:44:41.302Z,17.20
2022-11-27T21:47:12.138Z,12.80
2022-11-27T21:49:40.190Z,11.07
2022-11-27T21:52:07.279Z,13.40
2022-11-27T21:54:34.481Z,12.93
2022-11-27T21:57:01.186Z,16.58
2022-11-27T21:59:27.773Z,19.58
2022-11-27T22:01:57.170Z,27.48
2022-11-27T22:04:25.287Z,18.17
2022-11-27T22:06:51.840Z,15.52
2022-11-27T22:09:18.926Z,17.73
2022-11-27T22:11:47.037Z,20.75
2022-11-27T22:14:15.914Z,14.93
2022-11-27T22:16:46.004Z,16.90
2022-11-27T22:19:14.452Z,14.10
2022-11-27T22:21:41.324Z,13.50
2022-11-27T22:24:13.356Z,11.95
2022-11-27T22:26:43.284Z,10.43
2022-11-27T22:29:09.794Z,10.73
2022-11-27T22:31:36.346Z,10.50
2022-11-27T22:34:02.910Z,10.33
2022-11-27T22:36:32.198Z,10.07
2022-11-27T22:39:01.065Z,10.85
2022-11-27T22:41:29.266Z,12.63
2022-11-27T22:43:55.882Z,11.73
2022-11-27T22:46:26.501Z,11.00
2022-11-27T22:49:01.082Z,11.15
2022-11-27T22:51:29.954Z,10.95
2022-11-27T22:53:56.664Z,10.95
2022-11-27T22:56:23.391Z,11.20
2022-11-27T22:58:52.832Z,11.23
2022-11-27T23:01:29.029Z,10.55
2022-11-27T23:03:56.167Z,12.20
2022-11-27T23:06:23.596Z,12.45
2022-11-27T23:11:26.337Z,11.57
2022-11-27T23:13:54.347Z,11.52
2022-11-27T23:16:21.567Z,10.55
2022-11-27T23:18:48.485Z,9.73
2022-11-27T23:21:17.860Z,9.80
2022-11-27T23:23:45.320Z,10.95
2022-11-27T23:26:18.174Z,11.85
2022-11-27T23:28:45.876Z,11.95
2022-11-27T23:33:56.857Z,10.60
2022-11-27T23:36:24.752Z,10.60
2022-11-27T23:38:51.310Z,10.40
2022-11-27T23:41:21.713Z,10.48
2022-11-27T23:43:48.973Z,9.93
2022-11-27T23:46:17.464Z,11.25
2022-11-27T23:48:44.880Z,11.65
2022-11-27T23:53:39.133Z,10.38
2022-11-27T23:56:09.689Z,10.20
2022-11-27T23:58:36.374Z,10.15
